Time;durP1;ratioP1;P1;durP2;ratioP2;P2;SDS_P1;SDS_P2;PMS_P1;PMS_P2;Temp;Humidity;BMP_temperature;BMP_pressure;BME280_temperature;BME280_humidity;BME280_pressure;Samples;Min_cycle;Max_cycle;Signal;HPM_P1;HPM_P2
2024/04/05 00:00:14;;;;;;;1.47;0.70;;;11.20;99.90;;;;;;4961924;29;20493;-87
2024/04/05 00:02:41;;;;;;;0.50;0.50;;;11.20;99.90;;;;;;4961342;29;20222;-86
2024/04/05 00:05:10;;;;;;;1.33;0.80;;;11.20;99.90;;;;;;4960589;29;20963;-86
2024/04/05 00:07:37;;;;;;;2.83;0.73;;;11.20;99.90;;;;;;4961303;29;20446;-86
2024/04/05 00:10:05;;;;;;;0.70;0.70;;;11.20;99.90;;;;;;4960550;29;20813;-86
2024/04/05 00:12:33;;;;;;;0.60;0.60;;;11.20;99.90;;;;;;4960399;29;20944;-86
2024/04/05 00:15:00;;;;;;;0.73;0.73;;;11.20;99.90;;;;;;4960507;29;20525;-86
2024/04/05 00:17:26;;;;;;;0.70;0.70;;;11.30;99.90;;;;;;4959790;29;20490;-86
2024/04/05 00:19:53;;;;;;;0.70;0.70;;;11.30;99.90;;;;;;4960001;29;20470;-87
2024/04/05 00:22:20;;;;;;;0.60;0.60;;;11.30;99.90;;;;;;4960112;29;20210;-86
2024/04/05 00:24:46;;;;;;;0.70;0.70;;;11.20;99.90;;;;;;4960040;29;20786;-86
2024/04/05 00:27:12;;;;;;;1.47;1.07;;;11.20;99.90;;;;;;4959752;29;20927;-86
2024/04/05 00:29:40;;;;;;;0.83;0.60;;;11.30;99.90;;;;;;4959664;29;20547;-86
2024/04/05 00:32:06;;;;;;;0.50;0.50;;;11.30;99.90;;;;;;4959174;29;20680;-85
2024/04/05 00:34:33;;;;;;;0.50;0.50;;;11.30;99.90;;;;;;4959451;29;20439;-86
2024/04/05 00:36:59;;;;;;;1.90;0.70;;;11.30;99.90;;;;;;4959297;29;20471;-86
2024/04/05 00:39:26;;;;;;;0.50;0.50;;;11.30;99.90;;;;;;4959062;29;20480;-87
2024/04/05 00:41:52;;;;;;;4.90;0.93;;;11.30;99.90;;;;;;4959005;29;20203;-86
2024/04/05 00:44:19;;;;;;;0.43;0.43;;;11.30;99.90;;;;;;4958876;29;20455;-86
2024/04/05 00:46:46;;;;;;;0.60;0.60;;;11.30;99.90;;;;;;4958700;29;21014;-86
2024/04/05 00:49:13;;;;;;;0.90;0.60;;;11.30;99.90;;;;;;4959022;29;20486;-86
2024/04/05 00:51:39;;;;;;;3.20;1.10;;;11.30;99.90;;;;;;4959214;29;20451;-86
2024/04/05 00:54:07;;;;;;;1.47;0.70;;;11.30;99.90;;;;;;4958959;29;20486;-86
2024/04/05 00:56:34;;;;;;;1.23;0.60;;;11.30;99.90;;;;;;4959108;29;20474;-86
2024/04/05 00:59:01;;;;;;;1.40;0.70;;;11.30;99.90;;;;;;4958773;29;20458;-86
2024/04/05 01:01:27;;;;;;;2.20;0.60;;;11.30;99.90;;;;;;4966250;29;20442;-87
2024/04/05 01:03:56;;;;;;;0.60;0.60;;;11.30;99.90;;;;;;4962543;29;20458;-87
2024/04/05 01:06:22;;;;;;;2.20;0.80;;;11.30;99.90;;;;;;4961606;29;20506;-87
2024/04/05 01:08:49;;;;;;;0.50;0.50;;;11.30;99.90;;;;;;4961373;28;20473;-87
2024/04/05 01:11:15;;;;;;;0.97;0.97;;;11.20;99.90;;;;;;4959351;29;20441;-87
2024/04/05 01:13:42;;;;;;;1.43;0.50;;;11.20;99.90;;;;;;4958723;29;20454;-87
2024/04/05 01:16:07;;;;;;;1.80;0.87;;;11.10;99.90;;;;;;4958955;29;20569;-87
2024/04/05 01:18:34;;;;;;;4.53;1.00;;;11.10;99.90;;;;;;4962186;29;20505;-87
2024/04/05 01:21:03;;;;;;;2.90;0.77;;;11.10;99.90;;;;;;4961830;29;20216;-87
2024/04/05 01:23:32;;;;;;;0.83;0.83;;;11.10;99.90;;;;;;4960482;29;20445;-87
2024/04/05 01:26:00;;;;;;;0.70;0.70;;;11.10;99.90;;;;;;4960615;29;20449;-86
2024/04/05 01:28:27;;;;;;;0.50;0.50;;;11.20;99.90;;;;;;4960054;29;20458;-86
2024/04/05 01:30:53;;;;;;;0.60;0.60;;;11.10;99.90;;;;;;4959750;29;20948;-86
2024/04/05 01:33:20;;;;;;;7.20;0.70;;;11.30;99.90;;;;;;4960823;29;20545;-86
2024/04/05 01:35:46;;;;;;;1.37;0.60;;;11.10;99.90;;;;;;4960589;29;20214;-87
2024/04/05 01:38:13;;;;;;;3.67;0.80;;;11.20;99.90;;;;;;4960151;29;20482;-87
2024/04/05 01:40:39;;;;;;;3.90;0.60;;;11.10;99.90;;;;;;4959101;29;20672;-86
2024/04/05 01:43:07;;;;;;;2.77;1.10;;;11.10;99.90;;;;;;4960071;29;20454;-86
2024/04/05 01:45:32;;;;;;;0.70;0.60;;;11.10;99.90;;;;;;4958784;29;20587;-86
2024/04/05 01:47:59;;;;;;;3.33;1.10;;;11.10;99.90;;;;;;4959062;29;20558;-87
2024/04/05 01:50:25;;;;;;;2.87;0.80;;;11.10;99.90;;;;;;4959247;29;20226;-87
2024/04/05 01:52:52;;;;;;;1.33;0.90;;;11.10;99.90;;;;;;4959077;29;20517;-86
2024/04/05 01:55:18;;;;;;;1.07;0.53;;;11.10;99.90;;;;;;4959060;29;20217;-87
2024/04/05 01:57:44;;;;;;;3.37;0.70;;;11.00;99.90;;;;;;4958737;29;20485;-87
2024/04/05 02:00:12;;;;;;;1.10;0.80;;;11.10;99.90;;;;;;4958535;29;20227;-87
2024/04/05 02:02:39;;;;;;;0.60;0.60;;;11.00;99.90;;;;;;4958379;29;20526;-87
2024/04/05 02:05:05;;;;;;;0.83;0.53;;;11.00;99.90;;;;;;4958733;29;20530;-86
2024/04/05 02:07:32;;;;;;;1.43;0.80;;;11.00;99.90;;;;;;4958693;29;20492;-86
2024/04/05 02:09:58;;;;;;;1.67;0.70;;;11.00;99.90;;;;;;4958289;29;20470;-86
2024/04/05 02:12:27;;;;;;;0.53;0.53;;;11.00;99.90;;;;;;4957390;29;20808;-85
2024/04/05 02:14:52;;;;;;;0.50;0.50;;;11.00;99.90;;;;;;4958337;29;20206;-86
2024/04/05 02:17:21;;;;;;;0.60;0.60;;;11.00;99.90;;;;;;4957562;29;20477;-86
2024/04/05 02:19:46;;;;;;;0.63;0.60;;;11.10;99.90;;;;;;4957076;28;20261;-85
2024/04/05 02:22:13;;;;;;;1.73;0.60;;;11.10;99.90;;;;;;4957557;29;20875;-86
2024/04/05 02:24:39;;;;;;;1.40;0.70;;;11.00;99.90;;;;;;4957234;29;20695;-86
2024/04/05 02:27:06;;;;;;;0.70;0.70;;;11.00;99.90;;;;;;4957501;29;20442;-86
2024/04/05 02:29:33;;;;;;;0.73;0.73;;;11.10;99.90;;;;;;4957921;29;20230;-87
2024/04/05 02:32:00;;;;;;;2.00;0.80;;;11.10;99.90;;;;;;4957730;29;20489;-86
2024/04/05 02:34:27;;;;;;;1.00;0.90;;;11.10;99.90;;;;;;4958006;29;20541;-86
2024/04/05 02:36:54;;;;;;;0.60;0.60;;;11.10;99.90;;;;;;4957803;29;20486;-87
2024/04/05 02:39:20;;;;;;;0.80;0.80;;;11.00;99.90;;;;;;4958107;29;20474;-86
2024/04/05 02:41:47;;;;;;;1.20;0.70;;;11.00;99.90;;;;;;4957687;29;20482;-87
2024/04/05 02:44:13;;;;;;;0.67;0.67;;;11.00;99.90;;;;;;4957737;29;20531;-86
2024/04/05 02:46:40;;;;;;;0.53;0.53;;;11.00;99.90;;;;;;4957273;29;20984;-87
2024/04/05 02:49:06;;;;;;;1.17;0.70;;;11.00;99.90;;;;;;4957371;29;20466;-87
2024/04/05 02:51:35;;;;;;;1.13;0.80;;;11.00;99.90;;;;;;4957079;29;20458;-87
2024/04/05 02:54:01;;;;;;;0.90;0.50;;;11.00;99.90;;;;;;4957662;29;20453;-87
2024/04/05 02:56:27;;;;;;;0.80;0.80;;;11.00;99.90;;;;;;4957336;29;20486;-86
2024/04/05 02:58:53;;;;;;;0.77;0.70;;;11.00;99.90;;;;;;4956832;29;20230;-86
2024/04/05 03:01:20;;;;;;;1.30;0.87;;;11.00;99.90;;;;;;4957606;29;20456;-86
2024/04/05 03:03:46;;;;;;;0.60;0.60;;;11.00;99.90;;;;;;4961572;29;20203;-87
2024/04/05 03:06:13;;;;;;;0.70;0.60;;;11.00;99.90;;;;;;4967164;29;20450;-87
2024/04/05 03:08:40;;;;;;;0.70;0.70;;;11.00;99.90;;;;;;4966962;29;20282;-87
2024/04/05 03:11:08;;;;;;;1.10;1.00;;;11.00;99.90;;;;;;4966657;29;20454;-87
2024/04/05 03:13:34;;;;;;;0.60;0.60;;;11.00;99.90;;;;;;4969177;29;20458;-87
2024/04/05 03:16:01;;;;;;;0.77;0.60;;;11.00;99.90;;;;;;4968027;29;20437;-87
2024/04/05 03:18:27;;;;;;;0.80;0.80;;;10.90;99.90;;;;;;4960281;29;20313;-87
2024/04/05 03:20:54;;;;;;;0.63;0.63;;;10.90;99.90;;;;;;4959357;29;20492;-87
2024/04/05 03:23:20;;;;;;;1.13;0.80;;;11.00;99.90;;;;;;4958617;29;20673;-87
2024/04/05 03:25:48;;;;;;;1.10;0.60;;;11.00;99.90;;;;;;4959373;29;20456;-87
2024/04/05 03:28:14;;;;;;;0.70;0.57;;;11.00;99.90;;;;;;4958575;29;20301;-87
2024/04/05 03:30:41;;;;;;;0.50;0.50;;;11.00;99.90;;;;;;4958544;29;20478;-86
2024/04/05 03:33:07;;;;;;;0.70;0.70;;;10.90;99.90;;;;;;4960464;28;20297;-87
2024/04/05 03:35:37;;;;;;;0.50;0.50;;;11.00;99.90;;;;;;4962190;29;20442;-86
2024/04/05 03:38:04;;;;;;;2.30;0.67;;;11.00;99.90;;;;;;4961887;29;20545;-86
2024/04/05 03:40:31;;;;;;;2.87;0.70;;;11.00;99.90;;;;;;4961813;29;20465;-86
2024/04/05 03:42:59;;;;;;;0.57;0.57;;;11.00;99.90;;;;;;4968019;28;20430;-87
2024/04/05 03:45:25;;;;;;;1.47;0.70;;;11.00;99.90;;;;;;4963290;29;20464;-87
2024/04/05 03:47:52;;;;;;;1.43;0.80;;;11.00;99.90;;;;;;4962119;29;20577;-87
2024/04/05 03:50:17;;;;;;;0.60;0.60;;;11.00;99.90;;;;;;4962008;29;20458;-87
2024/04/05 03:52:44;;;;;;;2.10;0.63;;;11.00;99.90;;;;;;4960778;29;20537;-87
2024/04/05 03:55:10;;;;;;;0.80;0.50;;;11.00;99.90;;;;;;4959768;29;20233;-87
2024/04/05 03:57:37;;;;;;;1.83;0.53;;;11.00;99.90;;;;;;4958827;29;20987;-88
2024/04/05 04:00:06;;;;;;;1.80;0.80;;;11.00;99.90;;;;;;4959390;29;20587;-87
2024/04/05 04:02:33;;;;;;;0.70;0.70;;;10.90;99.90;;;;;;4958825;29;20462;-88
2024/04/05 04:04:59;;;;;;;0.60;0.60;;;10.90;99.90;;;;;;4958927;29;20510;-88
2024/04/05 04:07:25;;;;;;;2.43;0.43;;;10.90;99.90;;;;;;4958958;29;20470;-87
2024/04/05 04:09:51;;;;;;;0.90;0.70;;;10.90;99.90;;;;;;4958695;29;20226;-87
2024/04/05 04:12:18;;;;;;;2.40;0.77;;;10.90;99.90;;;;;;4958374;29;20549;-87
2024/04/05 04:14:44;;;;;;;3.23;0.77;;;10.90;99.90;;;;;;4958428;29;20265;-88
2024/04/05 04:17:12;;;;;;;0.80;0.60;;;10.90;99.90;;;;;;4958517;29;20490;-87
2024/04/05 04:19:39;;;;;;;0.80;0.70;;;10.90;99.90;;;;;;4958800;29;20594;-86
2024/04/05 04:22:07;;;;;;;0.60;0.60;;;11.00;99.90;;;;;;4958983;29;20835;-87
2024/04/05 04:24:34;;;;;;;0.53;0.50;;;10.90;99.90;;;;;;4959027;29;20545;-87
2024/04/05 04:27:01;;;;;;;0.60;0.60;;;10.90;99.90;;;;;;4958980;29;20449;-87
2024/04/05 04:29:30;;;;;;;1.90;0.60;;;10.90;99.90;;;;;;4958430;29;20983;-87
2024/04/05 04:31:56;;;;;;;1.57;0.60;;;10.90;99.90;;;;;;4966436;29;20434;-87
2024/04/05 04:34:24;;;;;;;1.70;0.83;;;10.80;99.90;;;;;;4982276;28;20449;-88
2024/04/05 04:36:50;;;;;;;0.67;0.50;;;10.80;99.90;;;;;;4982378;28;20477;-86
2024/04/05 04:39:17;;;;;;;1.10;0.63;;;10.80;99.90;;;;;;4982228;28;20454;-88
2024/04/05 04:41:43;;;;;;;1.07;0.70;;;10.90;99.90;;;;;;4966371;28;20205;-87
2024/04/05 04:44:10;;;;;;;0.70;0.60;;;10.80;99.90;;;;;;4961677;28;20528;-87
2024/04/05 04:46:36;;;;;;;3.33;0.87;;;10.80;99.90;;;;;;4961451;29;20238;-87
2024/04/05 04:49:02;;;;;;;1.20;0.70;;;10.80;99.90;;;;;;4960281;29;20458;-88
2024/04/05 04:51:29;;;;;;;2.10;0.70;;;10.80;99.90;;;;;;4959572;29;20213;-87
2024/04/05 04:53:57;;;;;;;2.83;0.80;;;10.80;99.90;;;;;;4959930;29;20442;-87
2024/04/05 04:56:22;;;;;;;0.60;0.60;;;10.80;99.90;;;;;;4959618;29;20454;-87
2024/04/05 04:58:50;;;;;;;5.03;1.00;;;10.80;99.90;;;;;;4959039;29;20826;-87
2024/04/05 05:01:16;;;;;;;0.50;0.50;;;10.80;99.90;;;;;;4961983;29;20605;-87
2024/04/05 05:03:42;;;;;;;0.60;0.57;;;10.70;99.90;;;;;;4966617;29;20469;-87
2024/04/05 05:06:08;;;;;;;0.53;0.53;;;10.70;99.90;;;;;;4960740;29;20211;-87
2024/04/05 05:08:36;;;;;;;0.70;0.50;;;10.70;99.90;;;;;;4960986;29;20466;-87
2024/04/05 05:11:02;;;;;;;0.90;0.80;;;10.70;99.90;;;;;;4960427;29;20249;-88
2024/04/05 05:13:30;;;;;;;0.60;0.60;;;10.70;99.90;;;;;;4960403;29;20951;-87
2024/04/05 05:15:56;;;;;;;1.87;0.77;;;10.70;99.90;;;;;;4960091;29;20449;-88
2024/04/05 05:18:23;;;;;;;1.27;0.70;;;10.70;99.90;;;;;;4959902;29;20486;-87
2024/04/05 05:20:51;;;;;;;0.60;0.60;;;10.70;99.90;;;;;;4961946;29;20225;-88
2024/04/05 05:23:18;;;;;;;0.80;0.80;;;10.70;99.90;;;;;;4962072;29;20466;-87
2024/04/05 05:25:46;;;;;;;0.60;0.50;;;10.70;99.90;;;;;;4960909;29;20456;-88
2024/04/05 05:28:13;;;;;;;2.83;0.60;;;10.70;99.90;;;;;;4960172;29;20453;-88
2024/04/05 05:30:42;;;;;;;0.70;0.70;;;10.70;99.90;;;;;;4964995;29;20548;-87
2024/04/05 05:33:10;;;;;;;1.77;0.57;;;10.70;99.90;;;;;;4960235;29;20447;-88
2024/04/05 05:35:36;;;;;;;0.73;0.73;;;10.70;99.90;;;;;;4958701;29;20447;-86
2024/04/05 05:38:03;;;;;;;1.10;0.50;;;10.70;99.90;;;;;;4958710;29;20925;-87
2024/04/05 05:40:30;;;;;;;0.50;0.50;;;10.70;99.90;;;;;;4958390;29;20542;-87
2024/04/05 05:42:58;;;;;;;1.10;0.50;;;10.80;99.90;;;;;;4958232;29;20451;-86
2024/04/05 05:45:24;;;;;;;1.57;0.57;;;10.80;99.90;;;;;;4958023;29;20537;-87
2024/04/05 05:47:54;;;;;;;0.60;0.60;;;10.80;99.90;;;;;;4957793;29;20485;-87
2024/04/05 05:50:21;;;;;;;0.77;0.60;;;10.90;99.90;;;;;;4957401;29;20476;-86
2024/04/05 05:52:48;;;;;;;0.90;0.60;;;10.90;99.90;;;;;;4957087;29;20438;-86
2024/04/05 05:55:14;;;;;;;1.23;0.63;;;11.00;99.90;;;;;;4955906;28;20442;-87
2024/04/05 05:57:40;;;;;;;1.73;0.80;;;11.10;99.90;;;;;;4956646;29;20474;-87
2024/04/05 06:00:09;;;;;;;0.70;0.70;;;11.10;99.90;;;;;;4956162;29;20480;-86
2024/04/05 06:02:37;;;;;;;2.00;1.00;;;11.30;99.90;;;;;;4956530;29;20458;-87
2024/04/05 06:05:04;;;;;;;0.80;0.80;;;11.30;99.90;;;;;;4956957;29;20457;-86
2024/04/05 06:07:31;;;;;;;2.13;0.90;;;11.40;99.90;;;;;;4957035;29;20859;-86
2024/04/05 06:09:58;;;;;;;1.93;1.17;;;11.50;99.90;;;;;;4956704;29;21006;-87
2024/04/05 06:12:26;;;;;;;0.80;0.70;;;11.70;99.90;;;;;;4958139;29;20447;-86
2024/04/05 06:14:53;;;;;;;0.77;0.77;;;11.80;99.90;;;;;;4957240;29;20486;-86
2024/04/05 06:17:21;;;;;;;3.23;0.77;;;11.90;99.90;;;;;;4957144;29;20478;-87
2024/04/05 06:19:54;;;;;;;0.60;0.60;;;12.00;99.90;;;;;;4956488;29;20466;-86
2024/04/05 06:22:21;;;;;;;3.90;0.70;;;12.10;99.90;;;;;;4958019;29;20442;-86
2024/04/05 06:24:50;;;;;;;1.57;0.80;;;12.40;99.90;;;;;;4956825;29;20454;-86
2024/04/05 06:27:17;;;;;;;1.13;0.60;;;12.70;99.90;;;;;;4957107;29;20446;-86
2024/04/05 06:29:47;;;;;;;0.63;0.63;;;13.40;99.90;;;;;;4957433;29;21007;-86
2024/04/05 06:32:14;;;;;;;0.90;0.50;;;13.90;99.90;;;;;;4957932;29;20435;-85
2024/04/05 06:34:42;;;;;;;0.60;0.57;;;14.10;99.90;;;;;;4958353;29;20538;-83
2024/04/05 06:37:09;;;;;;;0.70;0.70;;;14.20;99.90;;;;;;4957904;29;20459;-83
2024/04/05 06:39:35;;;;;;;0.70;0.70;;;14.20;99.90;;;;;;4959342;29;20471;-83
2024/04/05 06:42:02;;;;;;;1.03;0.50;;;14.30;99.90;;;;;;4959228;29;20464;-83
2024/04/05 06:44:31;;;;;;;1.43;0.80;;;14.60;99.90;;;;;;4960526;29;20214;-83
2024/04/05 06:46:58;;;;;;;3.00;0.93;;;15.00;99.90;;;;;;4959777;29;20485;-83
2024/04/05 06:49:24;;;;;;;3.03;1.00;;;15.40;99.90;;;;;;4959992;29;20477;-84
2024/04/05 06:51:52;;;;;;;0.60;0.60;;;15.70;99.90;;;;;;4965645;29;20529;-84
2024/04/05 06:54:18;;;;;;;1.13;0.70;;;15.70;99.90;;;;;;4960907;29;20202;-83
2024/04/05 06:56:45;;;;;;;1.00;0.90;;;15.70;99.90;;;;;;4960722;29;20897;-83
2024/04/05 06:59:10;;;;;;;3.10;0.97;;;15.60;99.90;;;;;;4959663;29;20223;-83
2024/04/05 07:01:37;;;;;;;0.73;0.73;;;15.50;99.90;;;;;;4959931;29;20549;-83
2024/04/05 07:04:05;;;;;;;2.60;0.60;;;15.50;99.90;;;;;;4959346;29;20206;-84
2024/04/05 07:06:33;;;;;;;0.90;0.70;;;15.40;99.90;;;;;;4962209;28;20450;-84
2024/04/05 07:09:03;;;;;;;0.87;0.70;;;15.60;99.90;;;;;;4972417;29;20498;-84
2024/04/05 07:11:28;;;;;;;1.30;0.90;;;15.70;99.90;;;;;;4967980;29;20438;-84
2024/04/05 07:13:55;;;;;;;1.83;0.77;;;15.60;99.90;;;;;;4964153;29;20517;-84
2024/04/05 07:16:21;;;;;;;0.57;0.57;;;15.80;99.90;;;;;;4963789;29;20199;-84
2024/04/05 07:18:48;;;;;;;1.70;0.63;;;15.80;99.90;;;;;;4976370;29;20549;-83
2024/04/05 07:21:16;;;;;;;0.77;0.77;;;16.00;99.90;;;;;;4982801;28;20438;-83
2024/04/05 07:23:42;;;;;;;1.80;1.00;;;16.20;99.90;;;;;;4982856;29;20454;-83
2024/04/05 07:26:09;;;;;;;0.70;0.70;;;16.30;99.90;;;;;;4980444;29;20462;-83
2024/04/05 07:28:36;;;;;;;0.60;0.60;;;16.40;99.90;;;;;;4963602;29;20466;-84
2024/04/05 07:31:03;;;;;;;0.57;0.57;;;16.40;99.90;;;;;;4964012;29;20472;-84
2024/04/05 07:33:30;;;;;;;0.97;0.87;;;16.40;99.90;;;;;;4963583;29;20807;-84
2024/04/05 07:35:56;;;;;;;0.50;0.50;;;16.80;99.90;;;;;;4963241;29;20460;-83
2024/04/05 07:38:25;;;;;;;0.50;0.50;;;17.10;99.90;;;;;;4962529;29;20478;-84
2024/04/05 07:40:51;;;;;;;1.43;0.50;;;17.40;99.90;;;;;;4962446;29;20510;-84
2024/04/05 07:43:19;;;;;;;0.40;0.40;;;17.50;99.90;;;;;;4963196;29;20478;-84
2024/04/05 07:45:45;;;;;;;0.87;0.50;;;17.50;99.90;;;;;;4963060;29;20203;-85
2024/04/05 07:48:14;;;;;;;1.30;0.50;;;17.50;99.90;;;;;;4963581;29;20569;-84
2024/04/05 07:50:40;;;;;;;0.60;0.60;;;17.60;99.90;;;;;;4962317;29;20203;-84
2024/04/05 07:53:07;;;;;;;0.90;0.60;;;17.80;99.90;;;;;;4962760;29;20514;-85
2024/04/05 07:55:33;;;;;;;1.40;0.50;;;18.00;99.90;;;;;;4963093;29;20206;-85
2024/04/05 07:57:59;;;;;;;0.50;0.50;;;18.20;99.90;;;;;;4962423;29;20532;-85
2024/04/05 08:00:26;;;;;;;0.80;0.60;;;18.30;99.90;;;;;;4961651;29;20221;-85
2024/04/05 08:02:53;;;;;;;0.60;0.60;;;18.40;99.90;;;;;;4961229;29;20446;-85
2024/04/05 08:05:19;;;;;;;1.00;0.63;;;18.50;99.90;;;;;;4961515;29;20932;-85
2024/04/05 08:07:46;;;;;;;3.63;0.70;;;18.10;99.90;;;;;;4961569;29;20474;-86
2024/04/05 08:10:12;;;;;;;0.70;0.63;;;17.90;99.90;;;;;;4961192;29;20590;-86
2024/04/05 08:12:39;;;;;;;0.60;0.60;;;17.80;99.90;;;;;;4961508;29;20447;-85
2024/04/05 08:15:09;;;;;;;0.63;0.63;;;17.90;99.90;;;;;;4961759;29;20214;-85
2024/04/05 08:17:37;;;;;;;0.87;0.63;;;18.00;99.90;;;;;;4960497;28;20520;-85
2024/04/05 08:20:04;;;;;;;3.80;0.50;;;18.00;99.90;;;;;;4960845;29;20473;-85
2024/04/05 08:22:32;;;;;;;0.60;0.60;;;18.10;99.90;;;;;;4960321;29;20540;-85
2024/04/05 08:24:58;;;;;;;0.80;0.80;;;18.00;99.90;;;;;;4960518;29;20959;-85
2024/04/05 08:27:25;;;;;;;2.63;0.60;;;18.10;99.90;;;;;;4960567;29;20548;-85
2024/04/05 08:29:51;;;;;;;0.50;0.50;;;18.20;99.90;;;;;;4960382;29;20477;-85
2024/04/05 08:32:18;;;;;;;0.50;0.50;;;18.50;99.90;;;;;;4960862;29;20453;-85
2024/04/05 08:34:45;;;;;;;1.00;0.60;;;18.70;99.90;;;;;;4960044;29;20450;-85
2024/04/05 08:37:12;;;;;;;0.90;0.50;;;18.90;99.90;;;;;;4959850;29;20460;-85
2024/04/05 08:39:38;;;;;;;0.80;0.60;;;19.20;99.90;;;;;;4959855;29;21015;-85
2024/04/05 08:42:12;;;;;;;0.80;0.60;;;19.00;99.90;;;;;;4960019;29;20485;-85
2024/04/05 08:44:38;;;;;;;1.33;0.73;;;18.90;99.90;;;;;;4959802;29;20908;-85
2024/04/05 08:47:06;;;;;;;1.90;0.50;;;19.00;99.90;;;;;;4959577;29;20596;-85
2024/04/05 08:49:33;;;;;;;0.57;0.57;;;19.20;99.90;;;;;;4960020;29;20466;-85
2024/04/05 08:52:01;;;;;;;2.20;0.60;;;19.40;99.90;;;;;;4959734;29;20470;-85
2024/04/05 08:54:28;;;;;;;0.50;0.50;;;19.50;99.90;;;;;;4959981;29;20463;-85
2024/04/05 08:56:56;;;;;;;0.70;0.70;;;19.80;99.90;;;;;;4959815;29;20887;-87
2024/04/05 08:59:23;;;;;;;0.50;0.50;;;20.00;99.90;;;;;;4959814;29;20509;-85
2024/04/05 09:01:53;;;;;;;0.47;0.47;;;20.30;99.90;;;;;;4959947;29;20462;-86
2024/04/05 09:04:19;;;;;;;1.80;0.60;;;20.70;99.90;;;;;;4959987;29;20441;-86
2024/04/05 09:06:46;;;;;;;0.93;0.67;;;21.30;99.90;;;;;;4960448;29;20454;-85
2024/04/05 09:09:24;;;;;;;0.80;0.50;;;21.80;99.90;;;;;;4958892;29;20222;-86
2024/04/05 09:11:51;;;;;;;0.50;0.50;;;22.70;99.90;;;;;;4959485;29;20438;-84
2024/04/05 09:14:17;;;;;;;2.20;0.55;;;23.50;99.90;;;;;;4959517;29;20454;-84
2024/04/05 09:16:44;;;;;;;1.05;0.50;;;24.00;99.90;;;;;;4958631;29;20216;-85
2024/04/05 09:19:11;;;;;;;1.60;0.50;;;24.20;99.90;;;;;;4958989;29;20233;-84
2024/04/05 09:21:43;;;;;;;1.42;0.55;;;24.20;99.90;;;;;;4959663;29;20554;-84
2024/04/05 09:24:09;;;;;;;0.50;0.50;;;24.70;99.90;;;;;;4962287;29;20273;-84
2024/04/05 09:26:37;;;;;;;0.70;0.70;;;24.70;99.90;;;;;;4965386;29;20240;-84
2024/04/05 09:29:06;;;;;;;0.47;0.47;;;24.70;99.90;;;;;;4972862;28;20232;-83
2024/04/05 09:31:33;;;;;;;0.50;0.45;;;25.20;99.90;;;;;;4972599;29;20206;-84
2024/04/05 09:34:06;;;;;;;1.20;0.60;;;25.40;99.90;;;;;;4967408;29;20213;-83
2024/04/05 09:36:34;;;;;;;0.50;0.50;;;25.30;99.90;;;;;;4976773;29;20202;-86
2024/04/05 09:39:02;;;;;;;0.85;0.50;;;25.60;99.90;;;;;;4969142;29;20226;-87
2024/04/05 09:41:29;;;;;;;0.50;0.50;;;26.20;99.30;;;;;;4963560;29;20212;-87
2024/04/05 09:43:59;;;;;;;0.50;0.50;;;25.90;98.20;;;;;;4962142;29;20194;-86
2024/04/05 09:46:27;;;;;;;0.60;0.50;;;26.40;99.80;;;;;;4961946;29;20585;-87
2024/04/05 09:48:55;;;;;;;0.60;0.60;;;26.40;98.70;;;;;;4960952;29;20708;-86
2024/04/05 09:51:26;;;;;;;1.33;0.70;;;26.60;96.70;;;;;;4962464;29;20208;-86
2024/04/05 09:53:52;;;;;;;0.60;0.50;;;27.10;97.10;;;;;;4962526;29;20558;-86
2024/04/05 09:56:19;;;;;;;0.40;0.40;;;28.20;95.90;;;;;;4961084;29;20282;-86
2024/04/05 09:58:46;;;;;;;0.40;0.40;;;29.20;93.30;;;;;;4960572;29;20241;-86
2024/04/05 10:01:16;;;;;;;0.52;0.52;;;29.10;90.00;;;;;;4960972;29;20210;-85
2024/04/05 10:03:42;;;;;;;0.50;0.50;;;28.40;90.50;;;;;;4961106;29;20240;-85
2024/04/05 10:06:13;;;;;;;1.33;0.70;;;27.80;90.30;;;;;;4961601;29;20581;-85
2024/04/05 10:08:39;;;;;;;0.60;0.60;;;27.40;89.50;;;;;;4959441;29;20257;-84
2024/04/05 10:11:13;;;;;;;1.08;0.55;;;26.80;91.90;;;;;;4971814;28;20235;-83
2024/04/05 10:13:39;;;;;;;0.50;0.50;;;26.30;90.20;;;;;;4980983;28;20170;-83
2024/04/05 10:16:06;;;;;;;0.65;0.52;;;25.90;90.90;;;;;;4980740;28;20186;-83
2024/04/05 10:18:37;;;;;;;0.52;0.50;;;25.60;92.10;;;;;;4980197;28;20228;-83
2024/04/05 10:21:08;;;;;;;0.52;0.52;;;25.80;92.80;;;;;;4963716;28;20622;-84
2024/04/05 10:23:34;;;;;;;0.50;0.50;;;25.90;91.20;;;;;;4958319;29;20198;-84
2024/04/05 10:26:01;;;;;;;0.50;0.50;;;26.20;91.30;;;;;;4959044;29;20229;-84
2024/04/05 10:28:28;;;;;;;0.52;0.50;;;26.10;91.20;;;;;;4959345;29;20715;-84
2024/04/05 10:30:56;;;;;;;0.50;0.47;;;26.10;92.70;;;;;;4959211;29;20198;-84
2024/04/05 10:33:23;;;;;;;0.60;0.40;;;26.30;92.40;;;;;;4959389;29;20201;-85
2024/04/05 10:35:51;;;;;;;0.50;0.43;;;26.30;91.60;;;;;;4959777;29;20178;-83
2024/04/05 10:38:17;;;;;;;1.50;0.52;;;26.10;88.60;;;;;;4960073;29;20217;-85
2024/04/05 10:40:44;;;;;;;1.55;0.60;;;25.90;89.20;;;;;;4959456;29;20265;-85
2024/04/05 10:43:11;;;;;;;0.50;0.50;;;25.40;91.50;;;;;;4958668;29;20202;-84
2024/04/05 10:45:38;;;;;;;0.40;0.40;;;24.90;90.90;;;;;;4961288;29;20191;-84
2024/04/05 10:48:05;;;;;;;0.68;0.60;;;24.80;91.70;;;;;;4959894;29;20229;-85
2024/04/05 10:50:37;;;;;;;1.70;0.60;;;24.60;90.90;;;;;;4959327;29;20221;-85
2024/04/05 10:53:05;;;;;;;0.50;0.40;;;24.40;89.70;;;;;;4960504;29;20281;-86
2024/04/05 10:55:32;;;;;;;0.40;0.40;;;24.30;90.40;;;;;;4959504;29;20241;-85
2024/04/05 10:58:02;;;;;;;0.88;0.50;;;24.20;90.30;;;;;;4959306;29;20207;-86
2024/04/05 11:00:30;;;;;;;0.40;0.40;;;24.10;91.10;;;;;;4959375;29;20317;-86
2024/04/05 11:02:57;;;;;;;1.02;0.55;;;24.00;90.30;;;;;;4958994;29;20584;-86
2024/04/05 11:05:23;;;;;;;0.60;0.40;;;24.10;91.10;;;;;;4958996;29;20642;-86
2024/04/05 11:07:58;;;;;;;0.70;0.68;;;24.00;90.60;;;;;;4958471;29;20213;-86
2024/04/05 11:10:31;;;;;;;0.50;0.50;;;23.80;90.00;;;;;;4959584;29;20611;-86
2024/04/05 11:12:57;;;;;;;0.65;0.40;;;23.50;88.30;;;;;;4958419;29;20269;-86
2024/04/05 11:15:24;;;;;;;0.50;0.50;;;23.40;89.20;;;;;;4957730;29;20233;-86
2024/04/05 11:18:00;;;;;;;0.40;0.40;;;23.40;91.50;;;;;;4957957;29;20206;-86
2024/04/05 11:20:29;;;;;;;0.57;0.40;;;23.30;90.90;;;;;;4957980;29;20226;-86
2024/04/05 11:22:55;;;;;;;0.43;0.43;;;23.30;90.70;;;;;;4958300;29;20198;-86
2024/04/05 11:25:22;;;;;;;0.50;0.50;;;23.10;90.40;;;;;;4957768;29;20229;-86
2024/04/05 11:27:49;;;;;;;0.40;0.40;;;23.20;91.30;;;;;;4958458;29;20210;-85
2024/04/05 11:30:16;;;;;;;0.93;0.70;;;23.20;90.30;;;;;;4957785;29;20226;-86
2024/04/05 11:32:43;;;;;;;0.52;0.40;;;23.20;90.80;;;;;;4957869;29;20217;-85
2024/04/05 11:35:12;;;;;;;0.40;0.40;;;23.10;91.10;;;;;;4958990;29;20213;-86
2024/04/05 11:37:38;;;;;;;0.50;0.50;;;22.80;91.00;;;;;;4958015;29;20305;-86
2024/04/05 11:40:09;;;;;;;1.48;0.43;;;22.80;91.90;;;;;;4957778;29;20226;-86
2024/04/05 11:42:35;;;;;;;0.52;0.40;;;22.90;91.50;;;;;;4958021;29;20218;-84
2024/04/05 11:45:04;;;;;;;0.50;0.50;;;22.90;90.20;;;;;;4957486;29;20726;-84
2024/04/05 11:47:30;;;;;;;0.40;0.40;;;23.00;88.70;;;;;;4957691;29;20261;-85
2024/04/05 11:49:57;;;;;;;0.63;0.60;;;23.10;89.00;;;;;;4957956;29;20222;-84
2024/04/05 11:52:23;;;;;;;0.40;0.40;;;23.30;86.70;;;;;;4958220;28;20210;-84
2024/04/05 11:54:50;;;;;;;0.50;0.50;;;23.40;89.60;;;;;;4961445;29;20277;-85
2024/04/05 11:57:16;;;;;;;0.40;0.40;;;23.50;89.60;;;;;;4960930;29;20265;-84
2024/04/05 11:59:44;;;;;;;1.02;0.60;;;23.50;90.10;;;;;;4960674;29;20233;-84
2024/04/05 12:02:11;;;;;;;0.60;0.40;;;23.60;90.60;;;;;;4960508;29;20585;-84
2024/04/05 12:04:38;;;;;;;0.70;0.40;;;23.70;89.90;;;;;;4960878;29;20203;-85
2024/04/05 12:07:05;;;;;;;0.50;0.50;;;23.70;90.70;;;;;;4960943;29;20565;-84
2024/04/05 12:09:31;;;;;;;0.50;0.40;;;23.60;90.30;;;;;;4961023;29;20226;-84
2024/04/05 12:11:58;;;;;;;1.38;0.40;;;23.60;90.60;;;;;;4960900;29;20210;-84
2024/04/05 12:14:25;;;;;;;0.50;0.40;;;23.50;88.50;;;;;;4960638;29;20212;-84
2024/04/05 12:16:50;;;;;;;0.40;0.40;;;23.40;90.10;;;;;;4960664;29;20214;-83
2024/04/05 12:19:19;;;;;;;0.40;0.40;;;23.60;90.50;;;;;;4960918;29;20607;-84
2024/04/05 12:21:44;;;;;;;0.40;0.40;;;23.60;90.20;;;;;;4961175;29;20206;-84
2024/04/05 12:24:11;;;;;;;0.50;0.50;;;23.70;90.80;;;;;;4960646;29;20205;-84
2024/04/05 12:26:37;;;;;;;0.50;0.50;;;23.70;91.80;;;;;;4960476;29;20203;-83
2024/04/05 12:29:04;;;;;;;0.88;0.47;;;23.70;92.30;;;;;;4960234;29;20726;-84
2024/04/05 12:31:29;;;;;;;0.40;0.40;;;23.70;90.30;;;;;;4960309;29;20293;-84
2024/04/05 12:33:57;;;;;;;0.50;0.50;;;23.60;86.40;;;;;;4961037;29;20241;-84
2024/04/05 12:36:24;;;;;;;1.40;0.40;;;23.40;85.00;;;;;;4960482;29;20209;-84
2024/04/05 12:38:56;;;;;;;0.50;0.40;;;23.40;86.50;;;;;;4960261;29;20237;-84
2024/04/05 12:41:23;;;;;;;0.45;0.40;;;23.40;87.50;;;;;;4959828;29;20665;-83
2024/04/05 12:43:50;;;;;;;0.40;0.40;;;23.40;85.60;;;;;;4961242;29;20198;-84
2024/04/05 12:46:16;;;;;;;0.40;0.40;;;23.40;86.60;;;;;;4959452;29;20206;-84